Terminal Aerodrome Forecast
Issued by NWS

Home | Current Version | Previous Version | Text Only | Print | Product List | Glossary On
Versions: 1 2 3 4 5 6 7 8 9 10 11 12 13 14 15 16
300
FTUS43 KLSX 231722
TAFUIN
TAF
KUIN 231722Z 2318/2418 15013KT P6SM SCT025 BKN040
      TEMPO 2318/2322 BKN025
     FM240100 16009KT P6SM SCT025 BKN040
      TEMPO 2403/2406 4SM TSRA OVC025CB
     FM240600 16008KT P6SM SHRA VCTS BKN040CB
     FM241200 19011KT P6SM SCT025 BKN050=

USA.gov is the U.S. government's official web portal to all federal, state and local government web resources and services.